Time;durP1;ratioP1;P1;durP2;ratioP2;P2;SDS_P1;SDS_P2;PMS_P1;PMS_P2;Temp;Humidity;BMP_temperature;BMP_pressure;BME280_temperature;BME280_humidity;BME280_pressure;Samples;Min_cycle;Max_cycle;Signal;HPM_P1;HPM_P2
2020/12/18 00:00:29;;;;;;;11.50;4.85;;;7.50;99.90;;;;;;5127534;28;20198;-85
2020/12/18 00:02:55;;;;;;;10.45;4.65;;;7.50;99.90;;;;;;5126678;28;20221;-86
2020/12/18 00:05:21;;;;;;;6.82;4.68;;;7.40;99.90;;;;;;5127471;28;20225;-83
2020/12/18 00:07:47;;;;;;;11.75;4.60;;;7.40;99.90;;;;;;5126574;28;20222;-86
2020/12/18 00:10:14;;;;;;;6.45;4.75;;;7.40;99.90;;;;;;5126935;28;20216;-86
2020/12/18 00:12:41;;;;;;;9.20;4.40;;;7.40;99.90;;;;;;5127045;28;20215;-84
2020/12/18 00:15:08;;;;;;;10.75;5.15;;;7.40;99.90;;;;;;5127070;28;20197;-83
2020/12/18 00:17:35;;;;;;;8.38;4.28;;;7.40;99.90;;;;;;5126401;28;20309;-84
2020/12/18 00:20:04;;;;;;;7.38;5.18;;;7.40;99.90;;;;;;5127018;28;20274;-83
2020/12/18 00:22:31;;;;;;;6.82;4.85;;;7.30;99.90;;;;;;5126613;28;20195;-84
2020/12/18 00:24:57;;;;;;;8.23;5.05;;;7.40;99.90;;;;;;5126612;28;20194;-84
2020/12/18 00:27:23;;;;;;;9.70;4.05;;;7.30;99.90;;;;;;5119357;28;20207;-86
2020/12/18 00:29:50;;;;;;;9.27;4.20;;;7.30;99.90;;;;;;5126847;28;20191;-85
2020/12/18 00:32:17;;;;;;;8.75;4.95;;;7.40;99.90;;;;;;5127815;28;20244;-83
2020/12/18 00:34:43;;;;;;;7.20;3.90;;;7.40;99.90;;;;;;5126373;28;20196;-87
2020/12/18 00:37:10;;;;;;;8.35;5.20;;;7.40;99.90;;;;;;5127528;28;20236;-85
2020/12/18 00:39:36;;;;;;;7.85;4.13;;;7.40;99.90;;;;;;5126549;28;20192;-84
2020/12/18 00:42:03;;;;;;;8.05;4.53;;;7.40;99.90;;;;;;5126581;28;20193;-85
2020/12/18 00:44:29;;;;;;;6.50;3.95;;;7.30;99.90;;;;;;5127343;28;20200;-82
2020/12/18 00:46:56;;;;;;;9.18;3.88;;;7.30;99.90;;;;;;5126279;28;20227;-84
2020/12/18 00:49:22;;;;;;;7.57;3.92;;;7.30;99.90;;;;;;5126500;28;20204;-84
2020/12/18 00:51:52;;;;;;;4.30;3.60;;;7.30;99.90;;;;;;5127095;28;20228;-86
2020/12/18 00:54:18;;;;;;;6.85;4.80;;;7.30;99.90;;;;;;5126763;28;20193;-84
2020/12/18 00:56:44;;;;;;;9.00;4.47;;;7.30;99.90;;;;;;5126692;28;20500;-83
2020/12/18 00:59:10;;;;;;;4.70;3.67;;;7.30;99.90;;;;;;5126960;28;20190;-82
2020/12/18 01:01:37;;;;;;;4.60;3.88;;;7.30;99.90;;;;;;5127699;28;20585;-86
2020/12/18 01:04:05;;;;;;;7.28;4.63;;;7.30;99.90;;;;;;5127924;28;20196;-86
2020/12/18 01:06:31;;;;;;;9.90;4.55;;;7.30;99.90;;;;;;5126600;28;20218;-85
2020/12/18 01:08:57;;;;;;;7.07;4.00;;;7.20;99.90;;;;;;5131761;28;20186;-84
2020/12/18 01:11:24;;;;;;;10.65;4.63;;;7.20;99.90;;;;;;5132023;28;20231;-86
2020/12/18 01:13:50;;;;;;;8.75;4.00;;;7.20;99.90;;;;;;5131278;28;20204;-85
2020/12/18 01:16:16;;;;;;;10.77;3.65;;;7.20;99.90;;;;;;5131122;28;20218;-83
2020/12/18 01:18:43;;;;;;;13.30;4.60;;;7.20;99.90;;;;;;5131090;28;20204;-86
2020/12/18 01:21:10;;;;;;;8.02;4.22;;;7.20;99.90;;;;;;5131971;28;20186;-84
2020/12/18 01:23:36;;;;;;;6.00;3.92;;;7.10;99.90;;;;;;5130877;28;20211;-83
2020/12/18 01:26:04;;;;;;;6.15;4.35;;;7.10;99.90;;;;;;5123614;28;20227;-87
2020/12/18 01:28:30;;;;;;;8.48;4.25;;;7.10;99.90;;;;;;5131363;28;20191;-82
2020/12/18 01:30:56;;;;;;;7.70;3.88;;;7.20;99.90;;;;;;5131844;28;20218;-84
2020/12/18 01:33:22;;;;;;;12.30;4.38;;;7.20;99.90;;;;;;5131422;28;20189;-86
2020/12/18 01:35:49;;;;;;;7.15;4.25;;;7.10;99.90;;;;;;5131144;28;20887;-85
2020/12/18 01:38:16;;;;;;;3.92;3.20;;;7.10;99.90;;;;;;5130962;28;20752;-84
2020/12/18 01:40:42;;;;;;;6.32;4.32;;;7.10;99.90;;;;;;5131394;28;20204;-85
2020/12/18 01:43:08;;;;;;;4.80;3.50;;;7.10;99.90;;;;;;5132785;28;20198;-86
2020/12/18 01:45:35;;;;;;;4.05;3.65;;;7.10;99.90;;;;;;5132246;28;20198;-84
2020/12/18 01:48:01;;;;;;;5.47;3.67;;;7.10;99.90;;;;;;5129533;28;20220;-82
2020/12/18 01:50:32;;;;;;;5.10;3.40;;;7.20;99.90;;;;;;5119776;28;20197;-84
2020/12/18 01:52:59;;;;;;;9.00;3.30;;;7.20;99.90;;;;;;5121545;28;20198;-84
2020/12/18 01:55:27;;;;;;;6.25;3.70;;;7.20;99.90;;;;;;5120475;28;20197;-81
2020/12/18 01:57:55;;;;;;;7.13;4.30;;;7.10;99.90;;;;;;5120801;28;20218;-84
2020/12/18 02:00:22;;;;;;;7.40;3.97;;;7.10;99.90;;;;;;5121873;28;20204;-82
2020/12/18 02:02:48;;;;;;;9.10;3.50;;;7.20;99.90;;;;;;5121885;28;20194;-82
2020/12/18 02:05:14;;;;;;;6.28;5.15;;;7.10;99.90;;;;;;5121618;28;20262;-83
2020/12/18 02:07:56;;;;;;;4.25;3.13;;;7.10;99.90;;;;;;5122391;28;20225;-82
2020/12/18 02:10:23;;;;;;;6.18;4.30;;;7.20;99.90;;;;;;5123265;28;20185;-82
2020/12/18 02:12:50;;;;;;;4.88;3.42;;;7.10;99.90;;;;;;5123886;28;20213;-85
2020/12/18 02:15:17;;;;;;;10.18;4.30;;;7.10;99.90;;;;;;5123105;28;20193;-83
2020/12/18 02:17:44;;;;;;;7.18;3.00;;;7.20;99.90;;;;;;5123622;28;20222;-82
2020/12/18 02:20:10;;;;;;;13.55;4.07;;;7.10;99.90;;;;;;5122452;28;20686;-83
2020/12/18 02:22:37;;;;;;;6.43;4.00;;;7.10;99.90;;;;;;5106283;28;20190;-85
2020/12/18 02:25:06;;;;;;;6.30;3.60;;;7.10;99.90;;;;;;5123674;28;20248;-82
2020/12/18 02:27:34;;;;;;;4.95;3.30;;;7.20;99.90;;;;;;5117794;28;20213;-86
2020/12/18 02:30:00;;;;;;;7.72;3.40;;;7.20;99.90;;;;;;5123754;28;20186;-83
2020/12/18 02:32:27;;;;;;;5.40;3.30;;;7.10;99.90;;;;;;5125437;28;20276;-85
2020/12/18 02:34:53;;;;;;;4.82;3.38;;;7.10;99.90;;;;;;5124037;28;20693;-83
2020/12/18 02:37:19;;;;;;;5.90;3.42;;;7.20;99.90;;;;;;5123434;28;20216;-83
2020/12/18 02:39:46;;;;;;;5.60;3.28;;;7.20;99.90;;;;;;5124425;28;20603;-82
2020/12/18 02:42:12;;;;;;;5.93;2.90;;;7.20;99.90;;;;;;5124191;28;20208;-83
2020/12/18 02:44:39;;;;;;;8.60;3.00;;;7.20;99.90;;;;;;5125325;28;20188;-81
2020/12/18 02:47:06;;;;;;;6.68;3.20;;;7.20;99.90;;;;;;5124099;28;20724;-86
2020/12/18 02:49:32;;;;;;;7.03;2.67;;;7.20;99.90;;;;;;5125173;28;20201;-83
2020/12/18 02:51:58;;;;;;;6.05;3.10;;;7.20;99.90;;;;;;5125113;28;20712;-82
2020/12/18 02:54:24;;;;;;;8.27;3.20;;;7.20;99.90;;;;;;5125714;28;20197;-84
2020/12/18 02:56:51;;;;;;;2.80;2.40;;;7.30;99.90;;;;;;5124812;28;20440;-84
2020/12/18 02:59:17;;;;;;;7.03;2.65;;;7.30;99.90;;;;;;5124739;28;20194;-83
2020/12/18 03:01:44;;;;;;;3.65;2.65;;;7.20;99.90;;;;;;5126906;28;20181;-82
2020/12/18 03:04:10;;;;;;;8.02;2.67;;;7.20;99.90;;;;;;5126140;28;20197;-83
2020/12/18 03:06:36;;;;;;;5.47;2.63;;;7.20;99.90;;;;;;5125901;28;20270;-82
2020/12/18 03:09:04;;;;;;;8.63;2.53;;;7.30;99.90;;;;;;5128570;28;20197;-84
2020/12/18 03:11:31;;;;;;;13.90;2.83;;;7.30;99.90;;;;;;5130518;28;20211;-86
2020/12/18 03:13:57;;;;;;;7.97;2.45;;;7.30;99.90;;;;;;5131462;28;20194;-85
2020/12/18 03:16:24;;;;;;;9.43;2.20;;;7.30;99.90;;;;;;5129766;28;20248;-86
2020/12/18 03:18:51;;;;;;;2.65;2.25;;;7.30;99.90;;;;;;5130479;28;20209;-85
2020/12/18 03:21:18;;;;;;;6.93;3.17;;;7.30;99.90;;;;;;5127136;28;20261;-83
2020/12/18 03:23:45;;;;;;;4.18;2.38;;;7.30;99.90;;;;;;5120340;28;20566;-82
2020/12/18 03:26:11;;;;;;;9.48;2.80;;;7.30;99.90;;;;;;5114545;28;20578;-83
2020/12/18 03:28:37;;;;;;;10.05;2.50;;;7.30;99.90;;;;;;5119850;28;20198;-83
2020/12/18 03:31:05;;;;;;;4.30;2.20;;;7.30;99.90;;;;;;5118579;28;20225;-84
2020/12/18 03:33:32;;;;;;;5.07;3.08;;;7.30;99.90;;;;;;5118406;28;20197;-82
2020/12/18 03:35:59;;;;;;;3.85;2.20;;;7.30;99.90;;;;;;5118406;28;20214;-82
2020/12/18 03:38:25;;;;;;;4.85;2.25;;;7.30;99.90;;;;;;5118221;28;20188;-83
2020/12/18 03:40:51;;;;;;;3.67;2.67;;;7.30;99.90;;;;;;5118905;28;20201;-82
2020/12/18 03:43:18;;;;;;;4.50;2.15;;;7.30;99.90;;;;;;5120284;28;20221;-82
2020/12/18 03:45:44;;;;;;;2.28;2.05;;;7.30;99.90;;;;;;5119947;28;20198;-82
2020/12/18 03:48:10;;;;;;;6.00;2.53;;;7.20;99.90;;;;;;5120384;28;20216;-83
2020/12/18 03:50:37;;;;;;;4.90;2.72;;;7.20;99.90;;;;;;5121344;28;20193;-82
2020/12/18 03:53:04;;;;;;;4.90;2.15;;;7.20;99.90;;;;;;5120937;28;20220;-83
2020/12/18 03:55:30;;;;;;;7.30;2.30;;;7.20;99.90;;;;;;5121429;28;20197;-83
2020/12/18 03:57:56;;;;;;;3.95;2.20;;;7.20;99.90;;;;;;5117363;28;20193;-82
2020/12/18 04:00:23;;;;;;;4.93;2.72;;;7.20;99.90;;;;;;5118284;28;20193;-85
2020/12/18 04:02:49;;;;;;;5.38;2.78;;;7.20;99.90;;;;;;5118762;28;20768;-83
2020/12/18 04:05:15;;;;;;;7.00;2.08;;;7.20;99.90;;;;;;5117368;28;20198;-83
2020/12/18 04:07:41;;;;;;;5.85;2.20;;;7.20;99.90;;;;;;5117516;28;20227;-84
2020/12/18 04:10:09;;;;;;;6.43;2.33;;;7.20;99.90;;;;;;5117485;28;20670;-84
2020/12/18 04:12:35;;;;;;;4.30;2.30;;;7.20;99.90;;;;;;5116877;28;20224;-84
2020/12/18 04:15:01;;;;;;;6.82;2.30;;;7.20;99.90;;;;;;5117037;28;20202;-83
2020/12/18 04:17:27;;;;;;;3.75;2.25;;;7.20;99.90;;;;;;5116312;28;20221;-85
2020/12/18 04:19:54;;;;;;;4.55;2.17;;;7.20;99.90;;;;;;5116654;28;20659;-85
2020/12/18 04:22:20;;;;;;;4.60;3.08;;;7.10;99.90;;;;;;5116213;28;20196;-84
2020/12/18 04:24:46;;;;;;;4.40;2.78;;;7.10;99.90;;;;;;5117094;28;20196;-83
2020/12/18 04:27:13;;;;;;;5.55;2.42;;;7.10;99.90;;;;;;5110170;28;20686;-82
2020/12/18 04:29:39;;;;;;;4.20;2.60;;;7.10;99.90;;;;;;5117315;28;20227;-83
2020/12/18 04:32:06;;;;;;;3.53;2.63;;;7.10;99.90;;;;;;5121871;28;20210;-85
2020/12/18 04:34:32;;;;;;;2.90;2.60;;;7.10;99.90;;;;;;5118040;28;20201;-83
2020/12/18 04:36:58;;;;;;;6.63;4.25;;;7.10;99.90;;;;;;5116629;28;20698;-83
2020/12/18 04:39:24;;;;;;;8.05;3.17;;;7.10;99.90;;;;;;5117382;28;20201;-83
2020/12/18 04:41:51;;;;;;;8.95;2.75;;;7.10;99.90;;;;;;5116259;28;20197;-83
2020/12/18 04:44:18;;;;;;;3.28;2.63;;;7.00;99.90;;;;;;5116619;28;20261;-82
2020/12/18 04:46:45;;;;;;;6.35;2.90;;;7.00;99.90;;;;;;5112801;28;20772;-82
2020/12/18 04:49:11;;;;;;;6.47;2.50;;;7.10;99.90;;;;;;5116658;28;20200;-84
2020/12/18 04:51:42;;;;;;;4.10;2.38;;;7.10;99.90;;;;;;5118024;28;20216;-82
2020/12/18 04:54:10;;;;;;;5.97;2.80;;;7.00;99.90;;;;;;5116569;28;20192;-81
2020/12/18 04:56:37;;;;;;;5.50;3.55;;;7.00;99.90;;;;;;5116678;28;20212;-81
2020/12/18 04:59:05;;;;;;;5.88;2.92;;;7.00;99.90;;;;;;5116747;28;20192;-81
2020/12/18 05:01:32;;;;;;;6.85;3.03;;;7.10;99.90;;;;;;5116789;28;20193;-80
2020/12/18 05:04:01;;;;;;;5.80;2.92;;;7.10;99.90;;;;;;5117793;28;20187;-82
2020/12/18 05:06:27;;;;;;;7.57;3.50;;;7.10;99.90;;;;;;5119033;28;20213;-82
2020/12/18 05:08:53;;;;;;;6.03;2.60;;;7.10;99.90;;;;;;5117169;28;20238;-83
2020/12/18 05:11:23;;;;;;;7.88;2.65;;;7.10;99.90;;;;;;5117860;28;20217;-83
2020/12/18 05:13:52;;;;;;;7.88;3.22;;;7.10;99.90;;;;;;5104083;28;20201;-85
2020/12/18 05:16:20;;;;;;;8.80;3.33;;;7.10;99.90;;;;;;5119047;28;20297;-82
2020/12/18 05:18:47;;;;;;;7.15;2.95;;;7.10;99.90;;;;;;5119920;28;20206;-81
2020/12/18 05:21:14;;;;;;;7.40;3.15;;;7.10;99.90;;;;;;5119397;28;20210;-80
2020/12/18 05:23:42;;;;;;;4.95;2.22;;;7.10;99.90;;;;;;5119801;28;20193;-82
2020/12/18 05:26:09;;;;;;;6.95;2.90;;;7.10;99.90;;;;;;5118824;28;20247;-81
2020/12/18 05:28:39;;;;;;;5.50;2.67;;;7.10;99.90;;;;;;5115780;28;20651;-82
2020/12/18 05:31:10;;;;;;;3.17;2.33;;;7.10;99.90;;;;;;5125302;28;20197;-80
2020/12/18 05:33:36;;;;;;;3.38;2.80;;;7.10;99.90;;;;;;5120971;28;20178;-83
2020/12/18 05:36:05;;;;;;;5.05;2.95;;;7.10;99.90;;;;;;5116218;28;20585;-82
2020/12/18 05:38:34;;;;;;;11.95;2.35;;;7.10;99.90;;;;;;5118949;28;20223;-81
2020/12/18 05:41:00;;;;;;;9.23;3.15;;;7.10;99.90;;;;;;5119884;28;20193;-81
2020/12/18 05:43:34;;;;;;;5.15;2.53;;;7.10;99.90;;;;;;5120223;28;20190;-80
2020/12/18 05:46:16;;;;;;;6.50;2.63;;;7.00;99.90;;;;;;5119015;28;20225;-81
2020/12/18 05:48:44;;;;;;;5.63;2.22;;;7.10;99.90;;;;;;5118016;28;20181;-82
2020/12/18 05:51:11;;;;;;;13.32;2.92;;;7.10;99.90;;;;;;5117335;28;20212;-81
2020/12/18 05:53:37;;;;;;;7.43;2.53;;;7.10;99.90;;;;;;5117666;28;20663;-81
2020/12/18 05:56:04;;;;;;;4.13;2.53;;;7.10;99.90;;;;;;5114088;28;20229;-81
2020/12/18 05:58:30;;;;;;;3.88;2.22;;;7.00;99.90;;;;;;5121553;28;20230;-82
2020/12/18 06:01:00;;;;;;;6.90;2.53;;;7.00;99.90;;;;;;5122352;28;20212;-81
2020/12/18 06:03:36;;;;;;;4.72;2.25;;;7.10;99.90;;;;;;5122219;28;20205;-81
2020/12/18 06:06:10;;;;;;;6.35;2.45;;;7.10;99.90;;;;;;5120631;28;20276;-82
2020/12/18 06:08:40;;;;;;;3.50;2.28;;;7.10;99.90;;;;;;5121034;28;20178;-82
2020/12/18 06:11:13;;;;;;;2.45;2.25;;;7.00;99.90;;;;;;5120356;28;20189;-81
2020/12/18 06:13:40;;;;;;;8.15;2.53;;;7.00;99.90;;;;;;5121147;28;20466;-80
2020/12/18 06:16:07;;;;;;;4.50;2.70;;;7.10;99.90;;;;;;5121903;28;20217;-83
2020/12/18 06:18:42;;;;;;;7.15;2.30;;;7.10;99.90;;;;;;5120757;28;20257;-82
2020/12/18 06:21:13;;;;;;;6.70;3.13;;;7.10;99.90;;;;;;5121437;28;20192;-81
2020/12/18 06:23:45;;;;;;;5.25;2.20;;;7.10;99.90;;;;;;5121899;28;20183;-79
2020/12/18 06:26:12;;;;;;;5.00;2.65;;;7.20;99.90;;;;;;5119889;28;20453;-82
2020/12/18 06:28:39;;;;;;;8.75;2.42;;;7.10;99.90;;;;;;5121669;28;20185;-81
2020/12/18 06:31:22;;;;;;;3.05;2.15;;;7.20;99.90;;;;;;5121764;28;20193;-82
2020/12/18 06:33:57;;;;;;;5.95;2.10;;;7.10;99.90;;;;;;5121144;28;20241;-81
2020/12/18 06:36:56;;;;;;;3.35;2.33;;;7.10;99.90;;;;;;5121265;28;20236;-82
2020/12/18 06:39:25;;;;;;;3.83;1.95;;;7.20;99.90;;;;;;5119995;28;20193;-82
2020/12/18 06:42:16;;;;;;;3.97;2.60;;;7.10;99.90;;;;;;5120053;28;20197;-82
2020/12/18 06:44:46;;;;;;;5.57;2.60;;;7.10;99.90;;;;;;5120480;28;20204;-81
2020/12/18 06:47:18;;;;;;;7.55;2.30;;;7.20;99.90;;;;;;5119367;28;20679;-80
2020/12/18 06:50:10;;;;;;;5.30;3.10;;;7.10;99.90;;;;;;5120276;28;20565;-82
2020/12/18 06:52:38;;;;;;;3.25;2.20;;;7.10;99.90;;;;;;5120901;28;20206;-82
2020/12/18 06:55:05;;;;;;;6.78;2.50;;;7.20;99.90;;;;;;5120143;28;20206;-84
2020/12/18 06:57:32;;;;;;;3.08;2.10;;;7.20;99.90;;;;;;5114095;28;20214;-82
2020/12/18 07:00:29;;;;;;;6.07;2.10;;;7.20;99.90;;;;;;5119810;28;20242;-82
2020/12/18 07:02:56;;;;;;;4.22;2.25;;;7.20;99.90;;;;;;5120285;28;20178;-83
2020/12/18 07:05:37;;;;;;;4.15;2.22;;;7.20;99.90;;;;;;5120827;28;20611;-82
2020/12/18 07:08:06;;;;;;;6.85;2.05;;;7.20;99.90;;;;;;5119941;28;20237;-83
2020/12/18 07:10:36;;;;;;;4.63;2.47;;;7.20;99.90;;;;;;5120511;28;20194;-82
2020/12/18 07:13:04;;;;;;;6.43;3.05;;;7.20;99.90;;;;;;5122226;28;20209;-82
2020/12/18 07:15:52;;;;;;;6.60;2.22;;;7.20;99.90;;;;;;5118951;28;20197;-80
2020/12/18 07:18:22;;;;;;;5.45;2.30;;;7.20;99.90;;;;;;5119206;28;20235;-82
2020/12/18 07:20:50;;;;;;;6.03;2.50;;;7.20;99.90;;;;;;5120150;28;20760;-80
2020/12/18 07:23:17;;;;;;;3.83;2.15;;;7.30;99.90;;;;;;5124329;28;20197;-82
2020/12/18 07:25:44;;;;;;;7.32;2.28;;;7.20;99.90;;;;;;5116628;28;20236;-80
2020/12/18 07:28:11;;;;;;;4.53;2.05;;;7.30;99.90;;;;;;5121566;28;20186;-81
2020/12/18 07:30:39;;;;;;;3.50;2.35;;;7.30;99.90;;;;;;5123133;28;20565;-80
2020/12/18 07:33:06;;;;;;;4.57;2.85;;;7.30;99.90;;;;;;5122909;28;20735;-80
2020/12/18 07:35:36;;;;;;;6.15;3.05;;;7.30;99.90;;;;;;5122380;28;20277;-83
2020/12/18 07:38:10;;;;;;;4.18;2.15;;;7.30;99.90;;;;;;5122907;28;20608;-82
2020/12/18 07:40:37;;;;;;;3.97;2.03;;;7.30;99.90;;;;;;5122788;28;20178;-80
2020/12/18 07:43:08;;;;;;;3.95;2.00;;;7.30;99.90;;;;;;5125579;28;20279;-83
2020/12/18 07:45:37;;;;;;;6.47;2.53;;;7.40;99.90;;;;;;5124070;28;20227;-80
2020/12/18 07:48:09;;;;;;;5.00;2.53;;;7.40;99.90;;;;;;5119865;28;20205;-80
2020/12/18 07:50:35;;;;;;;3.65;1.92;;;7.40;99.90;;;;;;5115446;28;20189;-79
2020/12/18 07:53:06;;;;;;;3.85;2.40;;;7.50;99.90;;;;;;5123794;28;20227;-82
2020/12/18 07:55:33;;;;;;;4.93;2.40;;;7.50;99.90;;;;;;5119678;28;20213;-81
2020/12/18 07:57:59;;;;;;;11.30;3.00;;;7.60;99.90;;;;;;5113862;28;20207;-79
2020/12/18 08:00:26;;;;;;;4.90;2.50;;;7.60;99.90;;;;;;5124501;28;20273;-81
2020/12/18 08:02:53;;;;;;;6.00;2.20;;;7.60;99.90;;;;;;5120522;28;20208;-81
2020/12/18 08:05:21;;;;;;;7.45;2.40;;;7.70;99.90;;;;;;5105346;28;20234;-80
2020/12/18 08:07:48;;;;;;;3.60;2.72;;;7.80;99.90;;;;;;5104324;28;20258;-80
2020/12/18 08:10:16;;;;;;;4.43;2.10;;;7.80;99.90;;;;;;5104756;28;20281;-81
2020/12/18 08:12:42;;;;;;;4.45;2.22;;;7.80;99.90;;;;;;5104685;28;20240;-80
2020/12/18 08:15:10;;;;;;;3.65;2.03;;;7.90;99.90;;;;;;5105554;28;20215;-78
2020/12/18 08:17:38;;;;;;;11.70;3.10;;;8.00;99.90;;;;;;5114709;28;20220;-81
2020/12/18 08:20:05;;;;;;;5.70;2.30;;;8.10;99.90;;;;;;5128855;28;20261;-81
2020/12/18 08:22:38;;;;;;;1.90;1.70;;;8.20;99.90;;;;;;5125491;28;20191;-82
2020/12/18 08:25:06;;;;;;;6.18;2.10;;;8.30;99.90;;;;;;5126191;28;20185;-81
2020/12/18 08:27:38;;;;;;;3.08;1.75;;;8.40;99.90;;;;;;5126282;28;20214;-80
2020/12/18 08:30:06;;;;;;;3.45;2.50;;;8.50;99.90;;;;;;5126708;28;20277;-81
2020/12/18 08:32:33;;;;;;;2.35;2.15;;;8.60;99.90;;;;;;5125657;28;20265;-80
2020/12/18 08:35:02;;;;;;;2.38;1.88;;;8.60;99.90;;;;;;5125817;28;20301;-82
2020/12/18 08:37:29;;;;;;;5.47;1.90;;;8.60;99.90;;;;;;5125110;28;20236;-82
2020/12/18 08:39:56;;;;;;;4.22;2.10;;;8.70;99.90;;;;;;5125754;28;20210;-81
2020/12/18 08:42:22;;;;;;;2.80;2.05;;;8.70;99.90;;;;;;5123191;28;20313;-81
2020/12/18 08:44:49;;;;;;;2.40;1.95;;;8.80;99.90;;;;;;5122334;28;20191;-79
2020/12/18 08:47:23;;;;;;;4.22;2.17;;;8.90;99.90;;;;;;5122819;28;20288;-79
2020/12/18 08:49:54;;;;;;;6.28;2.05;;;9.10;99.90;;;;;;5122865;28;20201;-81
2020/12/18 08:52:25;;;;;;;5.00;2.20;;;9.20;99.90;;;;;;5123644;28;20215;-82
2020/12/18 08:55:00;;;;;;;4.82;2.05;;;9.40;99.90;;;;;;5123652;28;20815;-80
2020/12/18 08:57:29;;;;;;;6.82;2.80;;;9.60;99.90;;;;;;5123805;28;20220;-80
2020/12/18 09:00:09;;;;;;;3.28;2.20;;;9.70;99.90;;;;;;5123270;28;20215;-80
2020/12/18 09:02:38;;;;;;;9.63;2.35;;;9.90;99.90;;;;;;5124921;28;20198;-80
2020/12/18 09:05:19;;;;;;;4.15;1.85;;;9.90;99.90;;;;;;5124093;28;20195;-82
2020/12/18 09:07:58;;;;;;;3.17;2.30;;;9.80;99.90;;;;;;5123010;28;20248;-81
2020/12/18 09:10:33;;;;;;;1.88;1.30;;;9.60;99.90;;;;;;5124359;28;20239;-81
2020/12/18 09:13:14;;;;;;;7.15;2.20;;;9.60;99.90;;;;;;5125611;28;20608;-80
2020/12/18 09:15:42;;;;;;;3.92;2.10;;;9.60;99.90;;;;;;5124979;28;20238;-79
2020/12/18 09:18:09;;;;;;;3.92;2.10;;;9.60;99.90;;;;;;5123363;28;20257;-81
2020/12/18 09:20:37;;;;;;;3.53;1.95;;;9.70;99.90;;;;;;5125344;28;20218;-79
2020/12/18 09:23:08;;;;;;;5.78;1.88;;;9.70;99.90;;;;;;5124182;28;20197;-83
2020/12/18 09:25:37;;;;;;;6.82;1.98;;;9.80;99.90;;;;;;5120090;28;20636;-80
2020/12/18 09:28:04;;;;;;;7.93;2.22;;;9.90;99.90;;;;;;5123194;28;20216;-82
2020/12/18 09:30:32;;;;;;;3.75;1.65;;;9.90;99.90;;;;;;5129585;28;20708;-83
2020/12/18 09:33:27;;;;;;;4.10;1.85;;;10.10;99.90;;;;;;5129567;28;20277;-82
2020/12/18 09:35:55;;;;;;;9.35;2.35;;;10.20;99.90;;;;;;5129876;28;20220;-83
2020/12/18 09:38:24;;;;;;;4.85;2.30;;;10.30;99.90;;;;;;5129539;28;20197;-80
2020/12/18 09:40:52;;;;;;;2.55;1.80;;;10.40;99.90;;;;;;5131697;28;20204;-83
2020/12/18 09:43:19;;;;;;;8.13;2.40;;;10.20;99.90;;;;;;5131827;28;20671;-81
2020/12/18 09:45:46;;;;;;;3.67;2.13;;;10.10;99.90;;;;;;5130192;28;20203;-83
2020/12/18 09:48:12;;;;;;;3.85;2.65;;;9.90;99.90;;;;;;5131293;28;20205;-80
2020/12/18 09:50:38;;;;;;;3.28;2.20;;;9.80;99.90;;;;;;5130555;28;20221;-81
2020/12/18 09:53:05;;;;;;;3.15;1.98;;;9.80;99.90;;;;;;5131098;28;20641;-82
2020/12/18 09:55:32;;;;;;;3.63;2.17;;;9.90;99.90;;;;;;5130592;28;20200;-80
2020/12/18 09:58:00;;;;;;;4.90;2.60;;;10.20;99.90;;;;;;5129650;28;20272;-82
2020/12/18 10:00:26;;;;;;;3.25;1.92;;;10.50;99.90;;;;;;5111445;28;20282;-80
2020/12/18 10:02:53;;;;;;;2.95;1.98;;;11.10;99.90;;;;;;5129917;28;20214;-80
2020/12/18 10:05:20;;;;;;;6.93;2.67;;;11.10;99.90;;;;;;5129914;28;20195;-81
2020/12/18 10:07:46;;;;;;;3.20;2.28;;;10.80;99.90;;;;;;5128926;28;20216;-82
2020/12/18 10:10:12;;;;;;;3.92;2.17;;;10.80;99.90;;;;;;5130058;28;20199;-83
2020/12/18 10:12:40;;;;;;;3.85;1.95;;;10.90;99.90;;;;;;5129508;28;20543;-83
2020/12/18 10:15:06;;;;;;;3.95;2.03;;;11.10;99.90;;;;;;5130710;28;20684;-83
2020/12/18 10:17:32;;;;;;;5.78;3.53;;;11.30;99.90;;;;;;5130130;28;20231;-77
2020/12/18 10:20:00;;;;;;;5.22;3.08;;;11.50;99.90;;;;;;5130190;28;20195;-83
2020/12/18 10:22:26;;;;;;;3.63;2.03;;;11.70;99.90;;;;;;5129357;28;20200;-83
2020/12/18 10:24:52;;;;;;;4.57;2.20;;;11.70;99.90;;;;;;5129151;28;20204;-80
2020/12/18 10:27:19;;;;;;;2.15;1.92;;;11.70;99.90;;;;;;5128694;28;20216;-82
2020/12/18 10:29:46;;;;;;;4.93;2.03;;;12.10;99.90;;;;;;5129559;28;20263;-82
2020/12/18 10:32:13;;;;;;;5.05;1.65;;;12.30;99.90;;;;;;5128910;28;20238;-82
2020/12/18 10:34:39;;;;;;;5.95;2.35;;;12.30;99.90;;;;;;5129475;28;20269;-82
2020/12/18 10:37:05;;;;;;;3.67;2.20;;;12.70;99.90;;;;;;5128409;28;20220;-84
2020/12/18 10:39:32;;;;;;;5.63;2.07;;;12.80;99.90;;;;;;5129045;28;20222;-81
2020/12/18 10:41:59;;;;;;;4.03;1.90;;;13.00;99.90;;;;;;5128912;28;20918;-83
2020/12/18 10:44:25;;;;;;;3.78;2.30;;;13.00;99.90;;;;;;5128961;28;20579;-83
2020/12/18 10:46:52;;;;;;;4.82;1.67;;;13.20;99.90;;;;;;5128403;28;20216;-82
2020/12/18 10:49:19;;;;;;;1.85;1.70;;;13.40;99.90;;;;;;5127607;28;20189;-81
2020/12/18 10:51:46;;;;;;;9.40;2.28;;;13.20;99.90;;;;;;5127990;28;20239;-81
2020/12/18 10:54:12;;;;;;;3.45;2.13;;;13.00;99.90;;;;;;5130042;28;20196;-82
2020/12/18 10:56:43;;;;;;;3.92;1.42;;;12.80;99.90;;;;;;5115425;28;20217;-81
2020/12/18 10:59:10;;;;;;;5.30;2.60;;;12.60;99.90;;;;;;5128207;28;20189;-82
2020/12/18 11:01:37;;;;;;;6.03;2.50;;;12.50;99.90;;;;;;5129002;28;20200;-80
2020/12/18 11:04:05;;;;;;;2.90;2.10;;;12.50;99.90;;;;;;5129318;28;20188;-82
2020/12/18 11:06:31;;;;;;;7.45;2.22;;;12.50;99.90;;;;;;5128686;28;20228;-80
2020/12/18 11:08:58;;;;;;;3.00;2.08;;;12.40;99.90;;;;;;5130024;28;20199;-82
2020/12/18 11:11:28;;;;;;;3.63;2.25;;;12.40;99.90;;;;;;5128963;28;20202;-83
2020/12/18 11:13:55;;;;;;;2.70;1.63;;;12.50;99.90;;;;;;5127908;28;20177;-81
2020/12/18 11:16:21;;;;;;;4.35;1.92;;;12.60;99.90;;;;;;5128120;28;20220;-82
2020/12/18 11:18:48;;;;;;;2.65;1.75;;;12.50;99.90;;;;;;5127809;28;20200;-80
2020/12/18 11:21:18;;;;;;;3.40;1.90;;;12.30;99.90;;;;;;5110403;28;20195;-82
2020/12/18 11:23:44;;;;;;;4.30;2.00;;;12.30;99.90;;;;;;5128748;28;20264;-81
2020/12/18 11:26:11;;;;;;;3.38;1.95;;;12.00;99.90;;;;;;5120898;28;20216;-82
2020/12/18 11:28:40;;;;;;;4.90;1.60;;;11.90;99.90;;;;;;5128535;28;20214;-84
2020/12/18 11:31:07;;;;;;;6.00;2.25;;;12.00;99.90;;;;;;5129760;28;20202;-83
2020/12/18 11:33:33;;;;;;;2.87;1.77;;;12.20;99.90;;;;;;5128910;28;20213;-81
2020/12/18 11:36:00;;;;;;;4.68;2.25;;;12.20;99.90;;;;;;5128064;28;20543;-81
2020/12/18 11:38:27;;;;;;;3.83;1.67;;;12.20;99.90;;;;;;5128189;28;20199;-83
2020/12/18 11:40:53;;;;;;;4.10;1.90;;;12.30;99.90;;;;;;5127822;28;20599;-80
2020/12/18 11:43:20;;;;;;;3.80;1.52;;;12.30;99.90;;;;;;5127677;28;20197;-81
2020/12/18 11:45:46;;;;;;;3.35;2.15;;;12.40;99.90;;;;;;5128367;28;20201;-82
2020/12/18 11:48:12;;;;;;;1.60;1.50;;;12.60;99.90;;;;;;5127672;28;20208;-80
2020/12/18 11:50:39;;;;;;;2.13;1.65;;;12.80;99.90;;;;;;5128420;28;20188;-82
2020/12/18 11:53:05;;;;;;;4.55;1.55;;;12.80;99.90;;;;;;5126646;28;20231;-84
2020/12/18 11:55:34;;;;;;;2.50;1.60;;;13.00;99.90;;;;;;5127493;28;20204;-80
2020/12/18 11:58:00;;;;;;;4.80;2.10;;;12.80;99.90;;;;;;5127647;28;20438;-83
2020/12/18 12:00:26;;;;;;;1.35;1.25;;;12.80;99.90;;;;;;5130182;28;20259;-82
2020/12/18 12:02:53;;;;;;;2.25;2.03;;;12.80;99.90;;;;;;5127769;28;20208;-83
2020/12/18 12:05:21;;;;;;;4.35;1.55;;;12.70;99.90;;;;;;5128955;28;20192;-83
2020/12/18 12:07:47;;;;;;;2.10;1.70;;;12.90;99.90;;;;;;5127772;28;20220;-81
2020/12/18 12:10:14;;;;;;;2.30;1.67;;;12.80;99.90;;;;;;5127964;28;20192;-82
2020/12/18 12:12:42;;;;;;;3.90;2.10;;;12.80;99.90;;;;;;5127553;28;20536;-79
2020/12/18 12:15:09;;;;;;;3.58;1.60;;;12.80;99.90;;;;;;5128260;28;20200;-80
2020/12/18 12:17:35;;;;;;;1.85;1.38;;;12.80;99.90;;;;;;5127048;28;20584;-83
2020/12/18 12:20:02;;;;;;;2.87;1.67;;;12.80;99.90;;;;;;5127714;28;20995;-84
2020/12/18 12:22:29;;;;;;;3.10;1.98;;;12.80;99.90;;;;;;5127313;28;20442;-81
2020/12/18 12:24:55;;;;;;;5.32;1.73;;;12.80;99.90;;;;;;5127644;28;20201;-81
2020/12/18 12:27:23;;;;;;;3.08;1.48;;;12.80;99.90;;;;;;5126630;28;20216;-82
2020/12/18 12:29:50;;;;;;;1.60;1.42;;;12.70;99.90;;;;;;5127001;28;20285;-83
2020/12/18 12:32:17;;;;;;;6.97;1.88;;;12.60;99.90;;;;;;5127095;28;20215;-81
2020/12/18 12:34:43;;;;;;;2.95;1.45;;;12.40;99.90;;;;;;5126439;28;20199;-84
2020/12/18 12:37:11;;;;;;;4.88;2.75;;;12.30;99.90;;;;;;5114437;28;20715;-80
2020/12/18 12:39:38;;;;;;;4.30;2.10;;;12.30;99.90;;;;;;5116996;28;20249;-79
2020/12/18 12:42:05;;;;;;;6.80;1.40;;;12.40;99.90;;;;;;5117911;28;20193;-81
2020/12/18 12:44:32;;;;;;;4.40;1.35;;;12.30;99.90;;;;;;5118656;28;20197;-80
2020/12/18 12:47:00;;;;;;;2.08;1.23;;;12.40;99.90;;;;;;5119315;28;20216;-80
2020/12/18 12:49:26;;;;;;;2.13;1.40;;;12.60;99.90;;;;;;5120387;28;20684;-80
2020/12/18 12:51:54;;;;;;;4.15;1.45;;;12.70;99.90;;;;;;5121352;28;20192;-79
2020/12/18 12:54:21;;;;;;;1.88;1.13;;;12.70;99.90;;;;;;5123401;28;20267;-79
2020/12/18 12:56:47;;;;;;;2.70;1.30;;;12.50;99.90;;;;;;5114533;28;20766;-79